sensor_id;sensor_type;location;lat;lon;timestamp;P1;durP1;ratioP1;P2;durP2;ratioP2
32186;SDS011;18686;53.084;8.872;2023-02-15T00:00:08;49.83;;;33.38;;
32186;SDS011;18686;53.084;8.872;2023-02-15T00:02:37;48.83;;;34.42;;
32186;SDS011;18686;53.084;8.872;2023-02-15T00:05:06;52.50;;;34.67;;
32186;SDS011;18686;53.084;8.872;2023-02-15T00:07:35;50.25;;;34.85;;
32186;SDS011;18686;53.084;8.872;2023-02-15T00:10:03;46.13;;;33.42;;
32186;SDS011;18686;53.084;8.872;2023-02-15T00:12:32;55.72;;;37.78;;
32186;SDS011;18686;53.084;8.872;2023-02-15T00:15:02;55.05;;;37.10;;
32186;SDS011;18686;53.084;8.872;2023-02-15T00:17:31;54.63;;;36.55;;
32186;SDS011;18686;53.084;8.872;2023-02-15T00:19:59;60.60;;;38.53;;
32186;SDS011;18686;53.084;8.872;2023-02-15T00:22:27;53.47;;;35.97;;
32186;SDS011;18686;53.084;8.872;2023-02-15T00:24:55;59.92;;;39.88;;
32186;SDS011;18686;53.084;8.872;2023-02-15T00:27:23;55.83;;;37.60;;
32186;SDS011;18686;53.084;8.872;2023-02-15T00:29:52;61.50;;;39.42;;
32186;SDS011;18686;53.084;8.872;2023-02-15T00:32:21;58.28;;;37.95;;
32186;SDS011;18686;53.084;8.872;2023-02-15T00:34:49;55.85;;;38.70;;
32186;SDS011;18686;53.084;8.872;2023-02-15T00:37:17;50.15;;;35.60;;
32186;SDS011;18686;53.084;8.872;2023-02-15T00:39:46;52.30;;;36.63;;
32186;SDS011;18686;53.084;8.872;2023-02-15T00:42:16;46.35;;;33.55;;
32186;SDS011;18686;53.084;8.872;2023-02-15T00:44:44;56.38;;;36.95;;
32186;SDS011;18686;53.084;8.872;2023-02-15T00:47:12;48.97;;;34.42;;
32186;SDS011;18686;53.084;8.872;2023-02-15T00:49:42;51.65;;;34.95;;
32186;SDS011;18686;53.084;8.872;2023-02-15T00:52:10;45.42;;;32.05;;
32186;SDS011;18686;53.084;8.872;2023-02-15T00:54:38;46.20;;;33.45;;
32186;SDS011;18686;53.084;8.872;2023-02-15T00:57:06;48.45;;;34.15;;
32186;SDS011;18686;53.084;8.872;2023-02-15T00:59:35;45.50;;;32.42;;
32186;SDS011;18686;53.084;8.872;2023-02-15T01:02:03;54.22;;;36.45;;
32186;SDS011;18686;53.084;8.872;2023-02-15T01:04:31;99.07;;;43.47;;
32186;SDS011;18686;53.084;8.872;2023-02-15T01:07:00;75.53;;;44.25;;
32186;SDS011;18686;53.084;8.872;2023-02-15T01:09:32;71.45;;;43.38;;
32186;SDS011;18686;53.084;8.872;2023-02-15T01:12:02;74.28;;;44.28;;
32186;SDS011;18686;53.084;8.872;2023-02-15T01:14:30;69.88;;;42.88;;
32186;SDS011;18686;53.084;8.872;2023-02-15T01:16:58;68.28;;;41.40;;
32186;SDS011;18686;53.084;8.872;2023-02-15T01:19:27;77.38;;;47.10;;
32186;SDS011;18686;53.084;8.872;2023-02-15T01:21:55;68.50;;;41.78;;
32186;SDS011;18686;53.084;8.872;2023-02-15T01:24:24;76.30;;;39.35;;
32186;SDS011;18686;53.084;8.872;2023-02-15T01:26:53;49.97;;;36.85;;
32186;SDS011;18686;53.084;8.872;2023-02-15T01:29:21;56.83;;;36.72;;
32186;SDS011;18686;53.084;8.872;2023-02-15T01:31:49;71.03;;;36.20;;
32186;SDS011;18686;53.084;8.872;2023-02-15T01:34:17;63.22;;;33.97;;
32186;SDS011;18686;53.084;8.872;2023-02-15T01:36:45;43.22;;;32.55;;
32186;SDS011;18686;53.084;8.872;2023-02-15T01:39:14;41.72;;;32.83;;
32186;SDS011;18686;53.084;8.872;2023-02-15T01:41:44;166.27;;;34.72;;
32186;SDS011;18686;53.084;8.872;2023-02-15T01:47:26;41.92;;;32.97;;
32186;SDS011;18686;53.084;8.872;2023-02-15T01:50:01;44.10;;;33.22;;
32186;SDS011;18686;53.084;8.872;2023-02-15T01:52:34;44.90;;;33.47;;
32186;SDS011;18686;53.084;8.872;2023-02-15T01:55:06;41.75;;;33.22;;
32186;SDS011;18686;53.084;8.872;2023-02-15T01:57:37;98.65;;;34.97;;
32186;SDS011;18686;53.084;8.872;2023-02-15T02:00:07;72.90;;;33.83;;
32186;SDS011;18686;53.084;8.872;2023-02-15T02:02:39;38.83;;;32.25;;
32186;SDS011;18686;53.084;8.872;2023-02-15T02:05:09;41.75;;;32.90;;
32186;SDS011;18686;53.084;8.872;2023-02-15T02:07:39;38.80;;;31.27;;
32186;SDS011;18686;53.084;8.872;2023-02-15T02:10:09;38.83;;;31.90;;
32186;SDS011;18686;53.084;8.872;2023-02-15T02:12:42;38.75;;;31.27;;
32186;SDS011;18686;53.084;8.872;2023-02-15T02:15:12;77.13;;;36.58;;
32186;SDS011;18686;53.084;8.872;2023-02-15T02:17:42;40.17;;;32.58;;
32186;SDS011;18686;53.084;8.872;2023-02-15T02:20:30;40.40;;;32.80;;
32186;SDS011;18686;53.084;8.872;2023-02-15T02:26:35;41.58;;;32.72;;
32186;SDS011;18686;53.084;8.872;2023-02-15T02:29:36;39.78;;;31.33;;
32186;SDS011;18686;53.084;8.872;2023-02-15T02:35:27;35.17;;;30.63;;
32186;SDS011;18686;53.084;8.872;2023-02-15T02:38:02;150.75;;;31.90;;
32186;SDS011;18686;53.084;8.872;2023-02-15T02:40:39;107.43;;;33.08;;
32186;SDS011;18686;53.084;8.872;2023-02-15T02:43:17;35.65;;;30.13;;
32186;SDS011;18686;53.084;8.872;2023-02-15T02:45:50;58.47;;;31.60;;
32186;SDS011;18686;53.084;8.872;2023-02-15T02:50:54;108.72;;;32.20;;
32186;SDS011;18686;53.084;8.872;2023-02-15T02:53:22;33.92;;;29.23;;
32186;SDS011;18686;53.084;8.872;2023-02-15T02:55:51;38.88;;;31.13;;
32186;SDS011;18686;53.084;8.872;2023-02-15T02:58:24;53.25;;;30.88;;
32186;SDS011;18686;53.084;8.872;2023-02-15T03:00:57;36.20;;;29.88;;
32186;SDS011;18686;53.084;8.872;2023-02-15T03:03:34;42.35;;;29.58;;
32186;SDS011;18686;53.084;8.872;2023-02-15T03:06:06;33.53;;;29.67;;
32186;SDS011;18686;53.084;8.872;2023-02-15T03:08:40;33.55;;;28.15;;
32186;SDS011;18686;53.084;8.872;2023-02-15T03:11:11;134.85;;;28.73;;
32186;SDS011;18686;53.084;8.872;2023-02-15T03:13:40;37.67;;;27.55;;
32186;SDS011;18686;53.084;8.872;2023-02-15T03:16:09;31.75;;;27.27;;
32186;SDS011;18686;53.084;8.872;2023-02-15T03:18:57;31.55;;;26.65;;
32186;SDS011;18686;53.084;8.872;2023-02-15T03:21:31;32.33;;;28.42;;
32186;SDS011;18686;53.084;8.872;2023-02-15T03:24:06;29.58;;;26.35;;
32186;SDS011;18686;53.084;8.872;2023-02-15T03:26:38;32.03;;;26.98;;
32186;SDS011;18686;53.084;8.872;2023-02-15T03:29:09;29.70;;;26.23;;
32186;SDS011;18686;53.084;8.872;2023-02-15T03:31:40;31.73;;;27.13;;
32186;SDS011;18686;53.084;8.872;2023-02-15T03:34:11;29.42;;;26.23;;
32186;SDS011;18686;53.084;8.872;2023-02-15T03:36:43;30.20;;;26.95;;
32186;SDS011;18686;53.084;8.872;2023-02-15T03:39:17;61.70;;;25.02;;
32186;SDS011;18686;53.084;8.872;2023-02-15T03:41:49;296.08;;;27.05;;
32186;SDS011;18686;53.084;8.872;2023-02-15T03:44:25;142.15;;;24.80;;
32186;SDS011;18686;53.084;8.872;2023-02-15T03:46:58;27.05;;;24.15;;
32186;SDS011;18686;53.084;8.872;2023-02-15T03:49:36;26.77;;;23.95;;
32186;SDS011;18686;53.084;8.872;2023-02-15T03:52:08;25.60;;;22.92;;
32186;SDS011;18686;53.084;8.872;2023-02-15T03:54:37;26.48;;;23.65;;
32186;SDS011;18686;53.084;8.872;2023-02-15T03:57:11;87.72;;;24.13;;
32186;SDS011;18686;53.084;8.872;2023-02-15T03:59:59;29.77;;;22.50;;
32186;SDS011;18686;53.084;8.872;2023-02-15T04:02:55;58.13;;;21.73;;
32186;SDS011;18686;53.084;8.872;2023-02-15T04:05:36;22.85;;;20.65;;
32186;SDS011;18686;53.084;8.872;2023-02-15T04:08:06;22.63;;;20.38;;
32186;SDS011;18686;53.084;8.872;2023-02-15T04:10:34;23.15;;;20.65;;
32186;SDS011;18686;53.084;8.872;2023-02-15T04:13:20;22.77;;;20.48;;
32186;SDS011;18686;53.084;8.872;2023-02-15T04:15:49;22.85;;;20.45;;
32186;SDS011;18686;53.084;8.872;2023-02-15T04:18:36;33.25;;;20.20;;
32186;SDS011;18686;53.084;8.872;2023-02-15T04:21:23;27.20;;;20.88;;
32186;SDS011;18686;53.084;8.872;2023-02-15T04:24:11;23.05;;;20.70;;
32186;SDS011;18686;53.084;8.872;2023-02-15T04:26:56;22.75;;;20.45;;
32186;SDS011;18686;53.084;8.872;2023-02-15T04:29:25;22.88;;;20.58;;
32186;SDS011;18686;53.084;8.872;2023-02-15T04:31:58;76.97;;;22.50;;
32186;SDS011;18686;53.084;8.872;2023-02-15T04:34:27;23.45;;;21.15;;
32186;SDS011;18686;53.084;8.872;2023-02-15T04:36:57;31.90;;;22.17;;
32186;SDS011;18686;53.084;8.872;2023-02-15T04:39:25;23.85;;;21.45;;
32186;SDS011;18686;53.084;8.872;2023-02-15T04:41:53;22.92;;;20.73;;
32186;SDS011;18686;53.084;8.872;2023-02-15T04:44:21;23.25;;;20.95;;
32186;SDS011;18686;53.084;8.872;2023-02-15T04:46:49;25.30;;;22.80;;
32186;SDS011;18686;53.084;8.872;2023-02-15T04:49:17;24.23;;;21.83;;
32186;SDS011;18686;53.084;8.872;2023-02-15T04:51:46;26.58;;;23.88;;
32186;SDS011;18686;53.084;8.872;2023-02-15T04:54:15;26.10;;;23.30;;
32186;SDS011;18686;53.084;8.872;2023-02-15T04:56:43;24.05;;;21.65;;
32186;SDS011;18686;53.084;8.872;2023-02-15T04:59:11;23.73;;;21.33;;
32186;SDS011;18686;53.084;8.872;2023-02-15T05:01:40;24.75;;;22.23;;
32186;SDS011;18686;53.084;8.872;2023-02-15T05:04:09;23.23;;;20.92;;
32186;SDS011;18686;53.084;8.872;2023-02-15T05:06:37;23.10;;;20.83;;
32186;SDS011;18686;53.084;8.872;2023-02-15T05:09:05;25.02;;;22.42;;
32186;SDS011;18686;53.084;8.872;2023-02-15T05:11:34;28.23;;;22.55;;
32186;SDS011;18686;53.084;8.872;2023-02-15T05:14:03;48.70;;;23.15;;
32186;SDS011;18686;53.084;8.872;2023-02-15T05:16:31;30.90;;;21.98;;
32186;SDS011;18686;53.084;8.872;2023-02-15T05:18:59;33.10;;;22.77;;
32186;SDS011;18686;53.084;8.872;2023-02-15T05:21:28;127.78;;;23.63;;
32186;SDS011;18686;53.084;8.872;2023-02-15T05:23:56;25.85;;;22.27;;
32186;SDS011;18686;53.084;8.872;2023-02-15T05:26:24;25.13;;;22.52;;
32186;SDS011;18686;53.084;8.872;2023-02-15T05:29:11;51.50;;;24.17;;
32186;SDS011;18686;53.084;8.872;2023-02-15T05:31:39;23.05;;;20.70;;
32186;SDS011;18686;53.084;8.872;2023-02-15T05:34:10;23.50;;;21.13;;
32186;SDS011;18686;53.084;8.872;2023-02-15T05:36:41;24.48;;;21.98;;
32186;SDS011;18686;53.084;8.872;2023-02-15T05:39:09;23.42;;;21.02;;
32186;SDS011;18686;53.084;8.872;2023-02-15T05:41:38;22.85;;;20.50;;
32186;SDS011;18686;53.084;8.872;2023-02-15T05:44:06;33.08;;;22.75;;
32186;SDS011;18686;53.084;8.872;2023-02-15T05:46:35;27.02;;;21.77;;
32186;SDS011;18686;53.084;8.872;2023-02-15T05:49:03;21.73;;;19.63;;
32186;SDS011;18686;53.084;8.872;2023-02-15T05:51:32;21.52;;;19.30;;
32186;SDS011;18686;53.084;8.872;2023-02-15T05:54:00;20.83;;;18.73;;
32186;SDS011;18686;53.084;8.872;2023-02-15T05:56:28;21.90;;;19.70;;
32186;SDS011;18686;53.084;8.872;2023-02-15T05:58:57;20.15;;;18.20;;
32186;SDS011;18686;53.084;8.872;2023-02-15T06:01:25;20.88;;;18.88;;
32186;SDS011;18686;53.084;8.872;2023-02-15T06:03:54;22.00;;;19.75;;
32186;SDS011;18686;53.084;8.872;2023-02-15T06:06:22;21.63;;;19.52;;
32186;SDS011;18686;53.084;8.872;2023-02-15T06:08:51;22.33;;;19.92;;
32186;SDS011;18686;53.084;8.872;2023-02-15T06:11:19;21.38;;;19.38;;
32186;SDS011;18686;53.084;8.872;2023-02-15T06:13:47;42.15;;;22.50;;
32186;SDS011;18686;53.084;8.872;2023-02-15T06:16:17;32.35;;;22.00;;
32186;SDS011;18686;53.084;8.872;2023-02-15T06:18:45;24.45;;;21.85;;
32186;SDS011;18686;53.084;8.872;2023-02-15T06:21:15;23.15;;;20.67;;
32186;SDS011;18686;53.084;8.872;2023-02-15T06:23:43;30.60;;;22.40;;
32186;SDS011;18686;53.084;8.872;2023-02-15T06:26:11;24.35;;;21.95;;
32186;SDS011;18686;53.084;8.872;2023-02-15T06:28:39;23.10;;;20.80;;
32186;SDS011;18686;53.084;8.872;2023-02-15T06:31:08;21.73;;;19.63;;
32186;SDS011;18686;53.084;8.872;2023-02-15T06:33:36;22.77;;;20.48;;
32186;SDS011;18686;53.084;8.872;2023-02-15T06:36:04;21.73;;;19.60;;
32186;SDS011;18686;53.084;8.872;2023-02-15T06:38:34;21.52;;;19.42;;
32186;SDS011;18686;53.084;8.872;2023-02-15T06:41:03;23.52;;;21.13;;
32186;SDS011;18686;53.084;8.872;2023-02-15T06:43:31;23.58;;;21.20;;
32186;SDS011;18686;53.084;8.872;2023-02-15T06:46:00;22.83;;;20.63;;
32186;SDS011;18686;53.084;8.872;2023-02-15T06:48:29;23.35;;;20.95;;
32186;SDS011;18686;53.084;8.872;2023-02-15T06:50:57;22.05;;;19.98;;
32186;SDS011;18686;53.084;8.872;2023-02-15T06:53:25;22.75;;;20.48;;
32186;SDS011;18686;53.084;8.872;2023-02-15T06:56:00;21.92;;;19.83;;
32186;SDS011;18686;53.084;8.872;2023-02-15T06:58:32;23.88;;;21.58;;
32186;SDS011;18686;53.084;8.872;2023-02-15T07:01:01;21.70;;;19.70;;
32186;SDS011;18686;53.084;8.872;2023-02-15T07:03:29;22.45;;;20.25;;
32186;SDS011;18686;53.084;8.872;2023-02-15T07:05:59;20.77;;;18.77;;
32186;SDS011;18686;53.084;8.872;2023-02-15T07:08:29;23.33;;;21.02;;
32186;SDS011;18686;53.084;8.872;2023-02-15T07:10:58;22.17;;;20.08;;
32186;SDS011;18686;53.084;8.872;2023-02-15T07:13:47;21.58;;;19.48;;
32186;SDS011;18686;53.084;8.872;2023-02-15T07:16:14;22.38;;;20.17;;
32186;SDS011;18686;53.084;8.872;2023-02-15T07:18:43;21.42;;;19.40;;
32186;SDS011;18686;53.084;8.872;2023-02-15T07:21:11;22.10;;;19.90;;
32186;SDS011;18686;53.084;8.872;2023-02-15T07:23:39;23.67;;;21.27;;
32186;SDS011;18686;53.084;8.872;2023-02-15T07:26:08;22.25;;;20.15;;
32186;SDS011;18686;53.084;8.872;2023-02-15T07:28:36;23.77;;;21.35;;
32186;SDS011;18686;53.084;8.872;2023-02-15T07:31:06;23.75;;;21.13;;
32186;SDS011;18686;53.084;8.872;2023-02-15T07:33:34;22.75;;;20.65;;
32186;SDS011;18686;53.084;8.872;2023-02-15T07:36:03;22.52;;;20.33;;
32186;SDS011;18686;53.084;8.872;2023-02-15T07:38:33;22.90;;;20.63;;
32186;SDS011;18686;53.084;8.872;2023-02-15T07:41:03;22.38;;;20.05;;
32186;SDS011;18686;53.084;8.872;2023-02-15T07:43:33;21.85;;;19.58;;
32186;SDS011;18686;53.084;8.872;2023-02-15T07:46:04;20.75;;;18.60;;
32186;SDS011;18686;53.084;8.872;2023-02-15T07:48:35;21.02;;;18.98;;
32186;SDS011;18686;53.084;8.872;2023-02-15T07:51:05;20.48;;;18.50;;
32186;SDS011;18686;53.084;8.872;2023-02-15T07:53:35;20.73;;;18.63;;
32186;SDS011;18686;53.084;8.872;2023-02-15T07:56:06;21.33;;;18.88;;
32186;SDS011;18686;53.084;8.872;2023-02-15T07:58:37;19.40;;;17.40;;
32186;SDS011;18686;53.084;8.872;2023-02-15T08:01:24;18.50;;;16.63;;
32186;SDS011;18686;53.084;8.872;2023-02-15T08:03:54;18.67;;;16.88;;
32186;SDS011;18686;53.084;8.872;2023-02-15T08:06:25;18.63;;;16.73;;
32186;SDS011;18686;53.084;8.872;2023-02-15T08:08:55;18.85;;;16.40;;
32186;SDS011;18686;53.084;8.872;2023-02-15T08:11:23;18.73;;;16.70;;
32186;SDS011;18686;53.084;8.872;2023-02-15T08:13:56;17.13;;;15.32;;
32186;SDS011;18686;53.084;8.872;2023-02-15T08:16:28;16.85;;;15.00;;
32186;SDS011;18686;53.084;8.872;2023-02-15T08:18:59;15.50;;;13.90;;
32186;SDS011;18686;53.084;8.872;2023-02-15T08:21:29;14.90;;;13.25;;
32186;SDS011;18686;53.084;8.872;2023-02-15T08:23:58;14.63;;;12.98;;
32186;SDS011;18686;53.084;8.872;2023-02-15T08:26:27;13.77;;;12.32;;
32186;SDS011;18686;53.084;8.872;2023-02-15T08:28:56;13.35;;;11.93;;
32186;SDS011;18686;53.084;8.872;2023-02-15T08:31:25;14.68;;;11.95;;
32186;SDS011;18686;53.084;8.872;2023-02-15T08:33:55;12.68;;;11.38;;
32186;SDS011;18686;53.084;8.872;2023-02-15T08:36:24;11.77;;;9.82;;
32186;SDS011;18686;53.084;8.872;2023-02-15T08:38:56;12.52;;;10.63;;
32186;SDS011;18686;53.084;8.872;2023-02-15T08:41:26;12.05;;;10.77;;
32186;SDS011;18686;53.084;8.872;2023-02-15T08:43:57;11.98;;;10.65;;
32186;SDS011;18686;53.084;8.872;2023-02-15T08:46:27;12.00;;;10.23;;
32186;SDS011;18686;53.084;8.872;2023-02-15T08:48:58;10.82;;;9.07;;
32186;SDS011;18686;53.084;8.872;2023-02-15T08:51:27;11.82;;;9.63;;
32186;SDS011;18686;53.084;8.872;2023-02-15T08:53:56;11.32;;;9.13;;
32186;SDS011;18686;53.084;8.872;2023-02-15T08:56:27;11.15;;;8.98;;
32186;SDS011;18686;53.084;8.872;2023-02-15T08:58:56;11.40;;;8.57;;
32186;SDS011;18686;53.084;8.872;2023-02-15T09:01:26;9.43;;;8.05;;
32186;SDS011;18686;53.084;8.872;2023-02-15T09:03:56;10.63;;;8.38;;
32186;SDS011;18686;53.084;8.872;2023-02-15T09:06:28;11.25;;;8.15;;
32186;SDS011;18686;53.084;8.872;2023-02-15T09:08:56;11.05;;;8.90;;
32186;SDS011;18686;53.084;8.872;2023-02-15T09:11:25;12.88;;;7.60;;
32186;SDS011;18686;53.084;8.872;2023-02-15T09:13:56;12.38;;;8.30;;
32186;SDS011;18686;53.084;8.872;2023-02-15T09:16:26;8.90;;;7.75;;
32186;SDS011;18686;53.084;8.872;2023-02-15T09:18:55;11.27;;;8.00;;
32186;SDS011;18686;53.084;8.872;2023-02-15T09:21:26;10.65;;;8.52;;
32186;SDS011;18686;53.084;8.872;2023-02-15T09:23:56;9.57;;;7.60;;
32186;SDS011;18686;53.084;8.872;2023-02-15T09:26:28;9.68;;;7.88;;
32186;SDS011;18686;53.084;8.872;2023-02-15T09:28:58;12.45;;;8.27;;
32186;SDS011;18686;53.084;8.872;2023-02-15T09:31:31;9.98;;;8.10;;
32186;SDS011;18686;53.084;8.872;2023-02-15T09:34:01;11.52;;;8.73;;
32186;SDS011;18686;53.084;8.872;2023-02-15T09:36:31;10.45;;;8.65;;
32186;SDS011;18686;53.084;8.872;2023-02-15T09:39:01;11.48;;;8.15;;
32186;SDS011;18686;53.084;8.872;2023-02-15T09:41:48;10.45;;;8.93;;
32186;SDS011;18686;53.084;8.872;2023-02-15T09:44:44;10.98;;;8.10;;
32186;SDS011;18686;53.084;8.872;2023-02-15T09:47:35;12.52;;;10.88;;
32186;SDS011;18686;53.084;8.872;2023-02-15T09:50:20;9.18;;;7.63;;
32186;SDS011;18686;53.084;8.872;2023-02-15T09:55:38;11.05;;;8.73;;
32186;SDS011;18686;53.084;8.872;2023-02-15T09:58:14;14.13;;;9.70;;
32186;SDS011;18686;53.084;8.872;2023-02-15T10:00:52;13.15;;;8.77;;
32186;SDS011;18686;53.084;8.872;2023-02-15T10:03:34;11.82;;;10.57;;
32186;SDS011;18686;53.084;8.872;2023-02-15T10:06:27;10.43;;;8.98;;
32186;SDS011;18686;53.084;8.872;2023-02-15T10:09:04;10.38;;;8.95;;
32186;SDS011;18686;53.084;8.872;2023-02-15T10:11:45;11.20;;;9.30;;
32186;SDS011;18686;53.084;8.872;2023-02-15T10:14:32;10.43;;;8.70;;
32186;SDS011;18686;53.084;8.872;2023-02-15T10:17:28;13.85;;;9.65;;
32186;SDS011;18686;53.084;8.872;2023-02-15T10:20:10;9.45;;;8.07;;
32186;SDS011;18686;53.084;8.872;2023-02-15T10:22:52;11.35;;;7.97;;
32186;SDS011;18686;53.084;8.872;2023-02-15T10:25:36;11.82;;;8.98;;
32186;SDS011;18686;53.084;8.872;2023-02-15T10:28:12;12.02;;;9.88;;
32186;SDS011;18686;53.084;8.872;2023-02-15T10:30:46;10.40;;;8.52;;
32186;SDS011;18686;53.084;8.872;2023-02-15T10:33:23;8.52;;;7.63;;
32186;SDS011;18686;53.084;8.872;2023-02-15T10:36:05;8.68;;;7.78;;
32186;SDS011;18686;53.084;8.872;2023-02-15T10:38:44;10.10;;;9.10;;
32186;SDS011;18686;53.084;8.872;2023-02-15T10:41:24;12.13;;;9.10;;
32186;SDS011;18686;53.084;8.872;2023-02-15T10:44:10;9.73;;;8.80;;
32186;SDS011;18686;53.084;8.872;2023-02-15T10:47:05;10.60;;;8.48;;
32186;SDS011;18686;53.084;8.872;2023-02-15T10:49:50;9.88;;;8.43;;
32186;SDS011;18686;53.084;8.872;2023-02-15T10:52:33;8.40;;;7.57;;
32186;SDS011;18686;53.084;8.872;2023-02-15T10:55:11;10.32;;;7.90;;
32186;SDS011;18686;53.084;8.872;2023-02-15T10:57:49;9.10;;;7.30;;
32186;SDS011;18686;53.084;8.872;2023-02-15T11:00:27;10.68;;;9.65;;
32186;SDS011;18686;53.084;8.872;2023-02-15T11:03:05;9.60;;;8.27;;
32186;SDS011;18686;53.084;8.872;2023-02-15T11:05:45;9.50;;;8.40;;
32186;SDS011;18686;53.084;8.872;2023-02-15T11:08:24;9.00;;;7.97;;
32186;SDS011;18686;53.084;8.872;2023-02-15T11:10:57;10.00;;;9.00;;
32186;SDS011;18686;53.084;8.872;2023-02-15T11:13:31;12.30;;;9.90;;
32186;SDS011;18686;53.084;8.872;2023-02-15T11:16:03;7.57;;;6.75;;
32186;SDS011;18686;53.084;8.872;2023-02-15T11:18:36;11.55;;;8.63;;
32186;SDS011;18686;53.084;8.872;2023-02-15T11:21:07;10.52;;;9.52;;
32186;SDS011;18686;53.084;8.872;2023-02-15T11:23:41;11.70;;;10.55;;
32186;SDS011;18686;53.084;8.872;2023-02-15T11:26:12;9.02;;;8.13;;
32186;SDS011;18686;53.084;8.872;2023-02-15T11:28:56;10.80;;;9.63;;
32186;SDS011;18686;53.084;8.872;2023-02-15T11:31:31;11.27;;;9.05;;
32186;SDS011;18686;53.084;8.872;2023-02-15T11:34:11;10.57;;;8.63;;
32186;SDS011;18686;53.084;8.872;2023-02-15T11:36:45;9.77;;;8.73;;
32186;SDS011;18686;53.084;8.872;2023-02-15T11:39:15;9.98;;;9.05;;
32186;SDS011;18686;53.084;8.872;2023-02-15T11:41:47;8.10;;;7.30;;
32186;SDS011;18686;53.084;8.872;2023-02-15T11:44:22;10.07;;;9.07;;
32186;SDS011;18686;53.084;8.872;2023-02-15T11:46:54;11.02;;;9.05;;
32186;SDS011;18686;53.084;8.872;2023-02-15T11:49:24;8.77;;;8.00;;
32186;SDS011;18686;53.084;8.872;2023-02-15T11:51:56;7.82;;;7.07;;
32186;SDS011;18686;53.084;8.872;2023-02-15T11:54:26;8.73;;;7.88;;
32186;SDS011;18686;53.084;8.872;2023-02-15T11:56:58;9.18;;;8.20;;
32186;SDS011;18686;53.084;8.872;2023-02-15T11:59:32;14.57;;;11.32;;
32186;SDS011;18686;53.084;8.872;2023-02-15T12:02:09;10.75;;;9.63;;
32186;SDS011;18686;53.084;8.872;2023-02-15T12:04:46;9.35;;;8.05;;
32186;SDS011;18686;53.084;8.872;2023-02-15T12:07:20;13.05;;;10.57;;
32186;SDS011;18686;53.084;8.872;2023-02-15T12:09:53;10.55;;;8.00;;
32186;SDS011;18686;53.084;8.872;2023-02-15T12:12:27;11.82;;;10.65;;
32186;SDS011;18686;53.084;8.872;2023-02-15T12:14:58;10.63;;;9.45;;
32186;SDS011;18686;53.084;8.872;2023-02-15T12:17:29;10.88;;;9.68;;
32186;SDS011;18686;53.084;8.872;2023-02-15T12:20:00;12.57;;;11.02;;
32186;SDS011;18686;53.084;8.872;2023-02-15T12:22:31;12.15;;;10.90;;
32186;SDS011;18686;53.084;8.872;2023-02-15T12:25:03;10.73;;;9.48;;
32186;SDS011;18686;53.084;8.872;2023-02-15T12:27:49;15.05;;;10.13;;
32186;SDS011;18686;53.084;8.872;2023-02-15T12:30:20;11.35;;;9.93;;
32186;SDS011;18686;53.084;8.872;2023-02-15T12:32:53;14.20;;;12.80;;
32186;SDS011;18686;53.084;8.872;2023-02-15T12:35:27;13.35;;;12.02;;
32186;SDS011;18686;53.084;8.872;2023-02-15T12:37:57;15.23;;;13.27;;
32186;SDS011;18686;53.084;8.872;2023-02-15T12:40:33;19.48;;;14.40;;
32186;SDS011;18686;53.084;8.872;2023-02-15T12:43:02;12.35;;;11.10;;
32186;SDS011;18686;53.084;8.872;2023-02-15T12:45:36;19.50;;;14.63;;
32186;SDS011;18686;53.084;8.872;2023-02-15T12:50:51;13.25;;;10.88;;
32186;SDS011;18686;53.084;8.872;2023-02-15T12:53:35;13.73;;;12.02;;
32186;SDS011;18686;53.084;8.872;2023-02-15T12:56:06;16.23;;;14.57;;
32186;SDS011;18686;53.084;8.872;2023-02-15T12:58:36;15.45;;;13.52;;
32186;SDS011;18686;53.084;8.872;2023-02-15T13:01:11;16.70;;;14.90;;
32186;SDS011;18686;53.084;8.872;2023-02-15T13:03:55;14.43;;;12.25;;
32186;SDS011;18686;53.084;8.872;2023-02-15T13:06:25;14.27;;;12.65;;
32186;SDS011;18686;53.084;8.872;2023-02-15T13:08:54;19.25;;;16.38;;
32186;SDS011;18686;53.084;8.872;2023-02-15T13:11:26;15.65;;;12.57;;
32186;SDS011;18686;53.084;8.872;2023-02-15T13:14:00;19.23;;;16.55;;
32186;SDS011;18686;53.084;8.872;2023-02-15T13:16:32;18.90;;;14.90;;
32186;SDS011;18686;53.084;8.872;2023-02-15T13:19:02;18.98;;;16.00;;
32186;SDS011;18686;53.084;8.872;2023-02-15T13:21:35;18.55;;;16.40;;
32186;SDS011;18686;53.084;8.872;2023-02-15T13:24:10;20.83;;;18.58;;
32186;SDS011;18686;53.084;8.872;2023-02-15T13:26:45;19.48;;;15.77;;
32186;SDS011;18686;53.084;8.872;2023-02-15T13:29:17;21.45;;;18.83;;
32186;SDS011;18686;53.084;8.872;2023-02-15T13:31:50;18.77;;;16.30;;
32186;SDS011;18686;53.084;8.872;2023-02-15T13:34:20;22.58;;;18.55;;
32186;SDS011;18686;53.084;8.872;2023-02-15T13:36:54;26.58;;;20.00;;
32186;SDS011;18686;53.084;8.872;2023-02-15T13:39:30;23.42;;;17.02;;
32186;SDS011;18686;53.084;8.872;2023-02-15T13:42:12;24.45;;;19.20;;
32186;SDS011;18686;53.084;8.872;2023-02-15T13:44:53;25.98;;;20.80;;
32186;SDS011;18686;53.084;8.872;2023-02-15T13:47:34;29.30;;;23.08;;
32186;SDS011;18686;53.084;8.872;2023-02-15T13:50:16;25.23;;;19.33;;
32186;SDS011;18686;53.084;8.872;2023-02-15T13:52:58;25.80;;;20.20;;
32186;SDS011;18686;53.084;8.872;2023-02-15T13:55:42;32.42;;;24.15;;
32186;SDS011;18686;53.084;8.872;2023-02-15T13:58:26;30.65;;;21.92;;
32186;SDS011;18686;53.084;8.872;2023-02-15T14:01:17;29.52;;;22.45;;
32186;SDS011;18686;53.084;8.872;2023-02-15T14:07:02;30.52;;;21.50;;
32186;SDS011;18686;53.084;8.872;2023-02-15T14:09:46;33.83;;;23.92;;
32186;SDS011;18686;53.084;8.872;2023-02-15T14:12:27;32.10;;;24.13;;
32186;SDS011;18686;53.084;8.872;2023-02-15T14:15:05;34.33;;;23.25;;
32186;SDS011;18686;53.084;8.872;2023-02-15T14:17:43;34.70;;;21.77;;
32186;SDS011;18686;53.084;8.872;2023-02-15T14:20:29;32.13;;;21.75;;
32186;SDS011;18686;53.084;8.872;2023-02-15T14:23:11;33.00;;;21.77;;
32186;SDS011;18686;53.084;8.872;2023-02-15T14:25:54;31.75;;;22.63;;
32186;SDS011;18686;53.084;8.872;2023-02-15T14:28:27;34.40;;;21.17;;
32186;SDS011;18686;53.084;8.872;2023-02-15T14:31:01;28.27;;;20.27;;
32186;SDS011;18686;53.084;8.872;2023-02-15T14:33:33;30.10;;;20.30;;
32186;SDS011;18686;53.084;8.872;2023-02-15T14:36:07;26.33;;;19.30;;
32186;SDS011;18686;53.084;8.872;2023-02-15T14:38:44;30.77;;;21.13;;
32186;SDS011;18686;53.084;8.872;2023-02-15T14:41:20;34.13;;;21.65;;
32186;SDS011;18686;53.084;8.872;2023-02-15T14:43:57;35.03;;;21.50;;
32186;SDS011;18686;53.084;8.872;2023-02-15T14:46:34;29.38;;;19.05;;
32186;SDS011;18686;53.084;8.872;2023-02-15T14:49:10;32.05;;;21.55;;
32186;SDS011;18686;53.084;8.872;2023-02-15T14:57:32;30.92;;;20.50;;
32186;SDS011;18686;53.084;8.872;2023-02-15T15:02:58;29.42;;;19.67;;
32186;SDS011;18686;53.084;8.872;2023-02-15T15:05:29;30.88;;;20.77;;
32186;SDS011;18686;53.084;8.872;2023-02-15T15:08:03;30.52;;;20.42;;
32186;SDS011;18686;53.084;8.872;2023-02-15T15:10:40;31.65;;;20.98;;
32186;SDS011;18686;53.084;8.872;2023-02-15T15:16:23;27.27;;;18.60;;
32186;SDS011;18686;53.084;8.872;2023-02-15T15:18:57;33.55;;;20.95;;
32186;SDS011;18686;53.084;8.872;2023-02-15T15:33:19;31.23;;;20.33;;
32186;SDS011;18686;53.084;8.872;2023-02-15T15:36:15;27.25;;;19.05;;
32186;SDS011;18686;53.084;8.872;2023-02-15T15:39:14;31.30;;;20.40;;
32186;SDS011;18686;53.084;8.872;2023-02-15T15:42:00;33.25;;;20.92;;
32186;SDS011;18686;53.084;8.872;2023-02-15T15:47:54;30.23;;;20.20;;